M I D A S
Marine Information and Data Acquisition System
Tripno 2205 of the Zeeleeuw from 2011-10-25 07:10:08 to 2011-10-25 15:10:04
Back to CruiseResearch ActivitiesStationsMapUnderway DataData graphs

EquipmentUnitsComment
TimeDGPSUTC
LatitudeDGPSDM.mWGS84
LongitudeDGPSDM.mWGS84
HeadingGyrodeg 
SOGDGPSknotsSpeed over ground
COGDGPSdegCourse over ground
DepthEcho soundermeters200 kHz
Missing or incorrect values are displayed as -999
Navigation data collected by the RV Zeeleeuw from 2011-10-25 06:49:53 to 2011-10-25 15:21:05
Time Latitude Longitude Heading SOG COG Depth
2011-10-25 06:50:59 51°13.636 2°56.019 124.9 0.1 172 7
2011-10-25 06:51:59 51°13.636 2°56.018 124.9 -999 266 7.2
2011-10-25 06:52:58 51°13.636 2°56.018 123.5 -999 61 7.2
2011-10-25 06:54:00 51°13.636 2°56.018 123.7 -999 207 -999
2011-10-25 06:54:58 51°13.636 2°56.019 123.2 -999 338 5.6
2011-10-25 06:55:59 51°13.635 2°56.019 123.4 -999 100 7.1
2011-10-25 06:56:57 51°13.633 2°56.019 123.4 -999 294 7.2
2011-10-25 06:57:58 51°13.631 2°56.021 123.1 0.1 212 -999
2011-10-25 06:58:58 51°13.631 2°56.023 123.2 -999 138 7.4
2011-10-25 07:00:00 51°13.631 2°56.022 123.2 -999 336 -999
2011-10-25 07:00:59 51°13.631 2°56.022 122.7 -999 202 -999
2011-10-25 07:01:59 51°13.637 2°56.019 122.3 -999 293 7.3
2011-10-25 07:02:59 51°13.637 2°56.018 122.1 -999 207 7.3
2011-10-25 07:03:59 51°13.637 2°56.018 123.4 0.1 171 7.3
2011-10-25 07:04:58 51°13.638 2°56.018 121.3 -999 164 7.1
2011-10-25 07:05:56 51°13.636 2°56.018 112.9 0.1 195 7.2
2011-10-25 07:06:56 51°13.637 2°56.01 104.7 1 292 7
2011-10-25 07:08:00 51°13.647 2°55.96 99.5 2.5 284 -999
2011-10-25 07:09:00 51°13.65 2°55.935 118.1 0.7 307 -999
2011-10-25 07:10:00 51°13.67 2°55.89 125.7 2.9 307 -999
2011-10-25 07:10:59 51°13.704 2°55.822 128.9 3.5 310 -999
2011-10-25 07:11:59 51°13.745 2°55.75 130.2 3.6 313 -999
2011-10-25 07:12:59 51°13.786 2°55.68 138 3.6 317 -999
2011-10-25 07:13:59 51°13.836 2°55.631 161.2 3.7 340 -999
2011-10-25 07:15:00 51°13.895 2°55.619 191.2 3.4 7 -999
2011-10-25 07:15:59 51°13.943 2°55.657 225.7 3.3 42 -999
2011-10-25 07:16:59 51°13.962 2°55.688 258.6 1 290 11
2011-10-25 07:17:58 51°13.989 2°55.611 302.2 5.7 305 11
2011-10-25 07:18:57 51°14.076 2°55.49 324.8 7.7 326 10.9
2011-10-25 07:19:59 51°14.192 2°55.369 327.7 8.1 329 10.8
2011-10-25 07:21:00 51°14.314 2°55.259 329.8 8.9 330 -999
2011-10-25 07:21:59 51°14.446 2°55.131 329.1 9.6 328 -999
2011-10-25 07:22:58 51°14.577 2°54.973 317.8 10.6 312 11.9
2011-10-25 07:23:56 51°14.636 2°54.717 273.1 10.9 268 11.3
2011-10-25 07:24:56 51°14.562 2°54.451 238.1 11.4 239 10
2011-10-25 07:25:56 51°14.462 2°54.176 239.1 12.5 241 9.5
2011-10-25 07:26:55 51°14.36 2°53.888 237.4 12.7 238 9.4
2011-10-25 07:27:56 51°14.238 2°53.607 231.8 12.7 233 9.5
2011-10-25 07:28:56 51°14.127 2°53.319 242.2 12.8 243 9.8
2011-10-25 07:29:56 51°14.019 2°53.028 234.5 12.8 236 9.9
2011-10-25 07:30:56 51°13.896 2°52.752 234.3 12.8 235 10
2011-10-25 07:31:56 51°13.779 2°52.468 236.8 12.8 238 10.2
2011-10-25 07:32:56 51°13.666 2°52.181 238.1 12.9 240 10.4
2011-10-25 07:33:55 51°13.564 2°51.888 240.2 12.8 241 10.7
2011-10-25 07:34:56 51°13.46 2°51.585 241.8 12.8 242 10.7
2011-10-25 07:35:56 51°13.361 2°51.285 241.2 12.8 240 11.1
2011-10-25 07:36:56 51°13.254 2°50.991 238.4 12.8 240 11
2011-10-25 07:37:56 51°13.146 2°50.699 238.4 12.7 239 11.1
2011-10-25 07:38:56 51°13.031 2°50.415 234.6 12.8 235 11.3
2011-10-25 07:39:55 51°12.919 2°50.135 238.3 12.8 240 11.4
2011-10-25 07:40:56 51°12.799 2°49.852 234.5 12.7 236 11.3
2011-10-25 07:41:56 51°12.685 2°49.569 236.7 12.7 238 11.6
2011-10-25 07:42:56 51°12.575 2°49.283 238.2 12.7 240 11.7
2011-10-25 07:43:56 51°12.482 2°48.98 243.8 12.7 244 12
2011-10-25 07:44:56 51°12.385 2°48.681 240.6 12.7 242 11.9
2011-10-25 07:45:56 51°12.284 2°48.385 240.6 12.7 241 12
2011-10-25 07:46:56 51°12.17 2°48.105 236 12.5 237 11.9
2011-10-25 07:47:56 51°12.066 2°47.814 238.5 12.6 238 12
2011-10-25 07:48:56 51°11.955 2°47.529 238 12.7 239 11.7
2011-10-25 07:49:56 51°11.851 2°47.237 240.3 12.6 241 11.7
2011-10-25 07:50:56 51°11.747 2°46.947 239.6 12.7 240 11.6
2011-10-25 07:51:56 51°11.637 2°46.664 235.2 12.6 236 11.2
2011-10-25 07:52:56 51°11.529 2°46.38 240.2 12.5 241 11
2011-10-25 07:53:56 51°11.426 2°46.094 237.3 12.4 237 10.9
2011-10-25 07:54:56 51°11.311 2°45.821 235.4 12.3 235 10.5
2011-10-25 07:55:56 51°11.195 2°45.555 236.4 12.2 238 10.1
2011-10-25 07:56:56 51°11.097 2°45.269 240.9 12.3 242 9.9
2011-10-25 07:57:56 51°10.998 2°44.986 240.8 12.2 240 9.8
2011-10-25 07:58:56 51°10.885 2°44.721 233.7 12 234 9.5
2011-10-25 07:59:56 51°10.772 2°44.457 237.1 12 240 9.4
2011-10-25 08:00:56 51°10.677 2°44.176 241.6 12 242 9.3
2011-10-25 08:01:56 51°10.58 2°43.898 240.3 12 240 9.4
2011-10-25 08:02:56 51°10.475 2°43.629 236.9 11.9 236 9.6
2011-10-25 08:03:56 51°10.37 2°43.368 238.9 10.5 238 9.7
2011-10-25 08:04:56 51°10.297 2°43.184 235.2 7.2 234 10
2011-10-25 08:05:56 51°10.234 2°43.039 235.6 5.8 235 10
2011-10-25 08:06:56 51°10.208 2°42.939 261.2 3.2 263 9.8
2011-10-25 08:07:56 51°10.206 2°42.867 268 2.5 270 9.9
2011-10-25 08:08:56 51°10.204 2°42.815 257.4 1 263 10
2011-10-25 08:09:56 51°10.204 2°42.812 245.9 0.2 55 10
2011-10-25 08:10:56 51°10.207 2°42.816 242 0.3 27 10
2011-10-25 08:11:56 51°10.211 2°42.82 235.6 0.3 39 10.3
2011-10-25 08:12:56 51°10.215 2°42.824 229.2 0.3 33 10.1
2011-10-25 08:13:56 51°10.219 2°42.83 225 0.3 51 10.1
2011-10-25 08:14:56 51°10.223 2°42.836 223 0.3 45 10.2
2011-10-25 08:15:56 51°10.228 2°42.842 223.3 0.4 48 10.2
2011-10-25 08:16:56 51°10.232 2°42.849 223.2 0.4 52 10.2
2011-10-25 08:17:56 51°10.237 2°42.856 223.8 0.4 29 10.1
2011-10-25 08:18:56 51°10.242 2°42.864 224.1 0.4 46 10.4
2011-10-25 08:19:56 51°10.248 2°42.872 225.2 0.5 45 10.4
2011-10-25 08:20:56 51°10.253 2°42.88 225.8 0.5 51 10.4
2011-10-25 08:21:56 51°10.258 2°42.889 225.6 0.5 47 10.3
2011-10-25 08:22:56 51°10.265 2°42.899 226.5 0.5 37 10.3
2011-10-25 08:23:56 51°10.27 2°42.909 226.4 0.5 55 10.5
2011-10-25 08:24:56 51°10.274 2°42.921 226.5 0.6 54 10.4
2011-10-25 08:25:56 51°10.28 2°42.933 225.9 0.6 43 10.4
2011-10-25 08:26:56 51°10.286 2°42.946 225.8 0.6 56 10.5
2011-10-25 08:27:56 51°10.293 2°42.959 225.6 0.6 54 10.4
2011-10-25 08:28:56 51°10.299 2°42.972 225.3 0.6 54 10.6
2011-10-25 08:29:56 51°10.305 2°42.987 225 0.6 50 10.5
2011-10-25 08:30:56 51°10.312 2°43.001 224.2 0.7 58 10.7
2011-10-25 08:31:56 51°10.319 2°43.016 223.7 0.7 54 10.6
2011-10-25 08:32:56 51°10.326 2°43.031 224.1 0.8 55 10.6
2011-10-25 08:33:56 51°10.334 2°43.046 225.4 0.8 50 10.7
2011-10-25 08:34:56 51°10.335 2°43.038 255.7 1.6 271 10.8
2011-10-25 08:35:56 51°10.368 2°42.995 325.7 3.5 349 10.7
2011-10-25 08:36:56 51°10.464 2°43.012 3.5 7 14 11
2011-10-25 08:37:56 51°10.555 2°43.083 30.5 5.1 39 11.1
2011-10-25 08:38:56 51°10.604 2°43.171 49.5 4.2 53 11.5
2011-10-25 08:39:56 51°10.641 2°43.259 54.4 3.9 58 11.6
2011-10-25 08:40:56 51°10.679 2°43.337 41.6 3.6 51 11.8
2011-10-25 08:41:56 51°10.719 2°43.411 42.1 3.6 49 12
2011-10-25 08:42:56 51°10.759 2°43.485 41.1 3.6 49 12.3
2011-10-25 08:43:56 51°10.8 2°43.557 40.8 3.7 49 12.7
2011-10-25 08:44:56 51°10.84 2°43.63 40.9 3.7 49 12.7
2011-10-25 08:45:56 51°10.881 2°43.703 40.7 3.7 49 13.1
2011-10-25 08:46:56 51°10.919 2°43.778 45.6 3.7 52 13.2
2011-10-25 08:47:56 51°10.956 2°43.857 50.5 3.7 56 13.4
2011-10-25 08:48:56 51°10.989 2°43.941 59.8 3.8 60 13.6
2011-10-25 08:49:56 51°11.017 2°44.029 68.3 3.7 67 13.7
2011-10-25 08:50:56 51°11.043 2°44.119 67 3.8 64 13.7
2011-10-25 08:51:56 51°11.067 2°44.211 77.8 3.7 72 13.7
2011-10-25 08:52:56 51°11.084 2°44.303 84.1 3.6 75 13.7
2011-10-25 08:53:56 51°11.099 2°44.394 89.3 3.5 77 13.6
2011-10-25 08:54:56 51°11.107 2°44.487 100.6 3.5 85 13.6
2011-10-25 08:55:56 51°11.098 2°44.599 121.9 4.5 106 13.3
2011-10-25 08:56:56 51°11.08 2°44.689 137.8 2.9 108 13
2011-10-25 08:57:56 51°11.07 2°44.755 145 2.3 102 12.7
2011-10-25 08:58:56 51°11.064 2°44.809 147.6 2 94 12.5
2011-10-25 08:59:56 51°11.059 2°44.858 160.3 2.2 121 12.5
2011-10-25 09:00:56 51°11.035 2°44.873 222.9 1.2 209 12.3
2011-10-25 09:01:56 51°11.038 2°44.832 272.4 2.6 287 12.4
2011-10-25 09:02:56 51°11.044 2°44.707 262.8 5.8 268 12.6
2011-10-25 09:03:56 51°11.027 2°44.544 255.6 6.4 258 12.9
2011-10-25 09:04:56 51°11.007 2°44.375 256.7 6.8 260 13.2
2011-10-25 09:05:56 51°10.986 2°44.16 258.2 9 261 13.3
2011-10-25 09:06:56 51°10.96 2°43.921 258.2 9.2 260 13.7
2011-10-25 09:07:56 51°10.924 2°43.685 251.8 9.1 251 13.8
2011-10-25 09:08:56 51°10.875 2°43.437 252.6 10.4 254 13.7
2011-10-25 09:09:56 51°10.817 2°43.178 248.9 10.4 251 13.7
2011-10-25 09:10:56 51°10.76 2°42.918 250.7 10.4 252 13.9
2011-10-25 09:11:56 51°10.718 2°42.651 256.6 10.4 257 14.1
2011-10-25 09:12:56 51°10.678 2°42.382 255.3 10.4 256 14.3
2011-10-25 09:13:56 51°10.627 2°42.121 248.9 10.3 249 14.4
2011-10-25 09:14:56 51°10.568 2°41.862 250.4 10.4 251 14.5
2011-10-25 09:15:56 51°10.516 2°41.6 255.6 10.4 257 14.5
2011-10-25 09:16:56 51°10.477 2°41.33 255.4 10.4 257 14.6
2011-10-25 09:17:56 51°10.427 2°41.067 249.3 10.3 250 14.7
2011-10-25 09:18:56 51°10.367 2°40.811 249.3 10.4 250 14.7
2011-10-25 09:19:56 51°10.32 2°40.546 256.1 10.4 258 15.1
2011-10-25 09:20:56 51°10.281 2°40.277 255.4 10.4 257 15.2
2011-10-25 09:21:56 51°10.238 2°40.011 253.6 10.4 253 15.6
2011-10-25 09:22:56 51°10.183 2°39.753 247.8 10.3 250 15.6
2011-10-25 09:23:56 51°10.124 2°39.497 249.8 10.3 253 16
2011-10-25 09:24:56 51°10.087 2°39.232 257.4 10.3 259 16.6
2011-10-25 09:25:56 51°10.053 2°38.964 257.7 10.2 259 17.1
2011-10-25 09:26:56 51°10.006 2°38.706 252.2 10.1 254 17.6
2011-10-25 09:27:56 51°9.978 2°38.44 262.9 10.2 265 18.2
2011-10-25 09:28:56 51°9.963 2°38.169 262.1 10.3 266 19
2011-10-25 09:29:56 51°9.942 2°37.898 259.6 10.3 262 19.2
2011-10-25 09:30:56 51°9.916 2°37.629 255.3 10.2 258 19.6
2011-10-25 09:31:56 51°9.895 2°37.358 264.9 10.5 269 19.9
2011-10-25 09:32:56 51°9.891 2°37.081 263.5 10.4 267 20.1
2011-10-25 09:33:56 51°9.888 2°36.806 267.9 10.4 273 20.6
2011-10-25 09:34:56 51°9.929 2°36.533 282.4 10.7 291 20.6
2011-10-25 09:35:56 51°9.99 2°36.272 282.7 10.4 292 20.9
2011-10-25 09:36:56 51°10.097 2°36.042 306.9 11.3 317 19.7
2011-10-25 09:37:56 51°10.258 2°35.868 323.8 12 332 13.4
2011-10-25 09:38:56 51°10.445 2°35.742 335.9 12.4 343 14
2011-10-25 09:39:56 51°10.654 2°35.739 6.6 12.9 14 13.5
2011-10-25 09:40:56 51°10.852 2°35.895 29.2 13.5 32 13.9
2011-10-25 09:41:56 51°11.042 2°36.082 27.8 13.4 31 13.8
2011-10-25 09:42:56 51°11.234 2°36.259 25.5 13.4 29 14
2011-10-25 09:43:56 51°11.429 2°36.428 24.5 13.3 27 14.1
2011-10-25 09:44:56 51°11.627 2°36.58 23.3 13.2 28 13.6
2011-10-25 09:45:56 51°11.814 2°36.771 32.4 13.4 37 13.7
2011-10-25 09:46:56 51°11.994 2°36.976 31.9 13.3 35 13.6
2011-10-25 09:47:56 51°12.178 2°37.175 30.3 13.3 34 13.7
2011-10-25 09:48:56 51°12.364 2°37.368 27.3 13.4 30 14.4
2011-10-25 09:49:56 51°12.554 2°37.554 27.5 13.5 31 15.1
2011-10-25 09:50:56 51°12.747 2°37.731 21.7 13.2 23 15.3
2011-10-25 09:51:56 51°12.957 2°37.797 358.3 12.8 3 15.8
2011-10-25 09:52:56 51°13.162 2°37.758 337.9 12.2 344 15.3
2011-10-25 09:53:56 51°13.336 2°37.619 315.2 11.5 321 13.2
2011-10-25 09:54:56 51°13.463 2°37.398 305.5 11.2 312 12
2011-10-25 09:55:56 51°13.563 2°37.157 289.2 10.8 293 15
2011-10-25 09:56:56 51°13.608 2°36.884 276.9 10.7 284 21.2
2011-10-25 09:57:56 51°13.65 2°36.609 279.2 10.7 285 22.3
2011-10-25 09:58:56 51°13.7 2°36.335 279.3 10.8 286 22
2011-10-25 09:59:56 51°13.759 2°36.063 286.5 11 293 21.2
2011-10-25 10:00:56 51°13.824 2°35.792 283.1 10.9 288 18.8
2011-10-25 10:01:56 51°13.886 2°35.518 285.9 11.1 294 17.1
2011-10-25 10:02:56 51°14.015 2°35.304 321.7 11.9 333 16.6
2011-10-25 10:03:56 51°14.22 2°35.257 355.2 13.1 4 20.8
2011-10-25 10:04:56 51°14.438 2°35.332 10.7 13.6 15 22
2011-10-25 10:05:56 51°14.655 2°35.445 14.4 13.7 18 21.3
2011-10-25 10:06:56 51°14.873 2°35.536 8.8 13.6 14 21.8
2011-10-25 10:07:56 51°15.091 2°35.637 14.9 13.8 18 22.6
2011-10-25 10:08:56 51°15.31 2°35.752 12.5 13.9 17 25.4
2011-10-25 10:09:56 51°15.532 2°35.859 14.4 14 19 27.5
2011-10-25 10:10:56 51°15.755 2°35.969 10.8 14.1 16 29.3
2011-10-25 10:11:56 51°15.979 2°36.074 11.7 14 16 29.5
2011-10-25 10:12:56 51°16.204 2°36.18 12.6 14.1 17 29.7
2011-10-25 10:13:56 51°16.426 2°36.278 9.3 13.8 14 30.9
2011-10-25 10:14:56 51°16.647 2°36.371 10.3 13.6 15 29.1
2011-10-25 10:15:56 51°16.868 2°36.426 2.3 13.4 8 29.8
2011-10-25 10:16:56 51°17.087 2°36.459 356.3 13.1 1 29.2
2011-10-25 10:17:56 51°17.305 2°36.473 358.4 13.2 4 26.4
2011-10-25 10:18:56 51°17.521 2°36.499 354 12.6 356 23.9
2011-10-25 10:19:56 51°17.699 2°36.363 319 11.9 327 18.7
2011-10-25 10:20:56 51°17.823 2°36.143 295.4 11 301 16.8
2011-10-25 10:21:56 51°17.918 2°35.893 294.8 11 302 14
2011-10-25 10:22:56 51°17.954 2°35.62 266.7 10.5 268 18.7
2011-10-25 10:23:56 51°17.931 2°35.344 256 10.7 260 20.8
2011-10-25 10:24:56 51°17.904 2°35.065 256.2 10.6 259 23
2011-10-25 10:25:56 51°17.882 2°34.792 261.1 10.1 267 22.9
2011-10-25 10:26:56 51°17.871 2°34.517 259.9 10.4 262 27.9
2011-10-25 10:27:56 51°17.831 2°34.252 249.7 10.2 253 28.3
2011-10-25 10:28:56 51°17.776 2°33.994 248.3 10.1 254 31
2011-10-25 10:29:56 51°17.728 2°33.733 249.9 10.3 254 30.9
2011-10-25 10:30:56 51°17.682 2°33.469 249.2 10.4 251 28.6
2011-10-25 10:31:56 51°17.634 2°33.203 249.9 10.4 255 29.6
2011-10-25 10:32:56 51°17.57 2°32.949 245.9 10.4 247 29.3
2011-10-25 10:33:56 51°17.504 2°32.693 246.5 10.4 250 30.1
2011-10-25 10:34:56 51°17.444 2°32.435 246.4 10.4 248 29.3
2011-10-25 10:35:56 51°17.375 2°32.185 244.6 10.3 245 28.8
2011-10-25 10:36:56 51°17.32 2°31.924 248.4 10.4 252 29.8
2011-10-25 10:37:56 51°17.263 2°31.665 246.4 10.2 251 28.7
2011-10-25 10:38:56 51°17.203 2°31.413 246.4 10.2 252 30.4
2011-10-25 10:39:56 51°17.154 2°31.156 248.3 10.1 253 29.3
2011-10-25 10:40:56 51°17.094 2°30.908 241.5 10 241 30.3
2011-10-25 10:41:56 51°17.022 2°30.667 240.9 10.1 247 28.6
2011-10-25 10:42:56 51°16.949 2°30.425 241.4 10.3 246 30.9
2011-10-25 10:43:56 51°16.886 2°30.17 247.6 10.4 249 30.4
2011-10-25 10:44:56 51°16.824 2°29.909 246.7 10.6 250 30.7
2011-10-25 10:45:56 51°16.758 2°29.651 244.7 10.5 250 30.9
2011-10-25 10:46:56 51°16.687 2°29.396 240.8 10.6 242 30.8
2011-10-25 10:47:56 51°16.613 2°29.141 241.8 10.6 245 30.7
2011-10-25 10:48:56 51°16.541 2°28.884 243.1 10.5 246 31
2011-10-25 10:49:56 51°16.466 2°28.63 245 10.8 249 30.7
2011-10-25 10:50:56 51°16.4 2°28.366 245.4 10.6 246 30.3
2011-10-25 10:51:56 51°16.327 2°28.106 245.7 10.7 247 30
2011-10-25 10:52:56 51°16.253 2°27.846 245.7 10.8 247 28.2
2011-10-25 10:53:56 51°16.181 2°27.585 242.3 10.6 244 26.8
2011-10-25 10:54:56 51°16.1 2°27.332 245.2 10.7 247 23.7
2011-10-25 10:55:56 51°16.041 2°27.069 250.8 10.6 250 20.1
2011-10-25 10:56:56 51°15.981 2°26.811 249.6 10.2 249 16.3
2011-10-25 10:57:56 51°15.945 2°26.549 265 10.1 267 14.3
2011-10-25 10:58:56 51°15.954 2°26.283 273.4 10 273 13.7
2011-10-25 10:59:56 51°15.96 2°26.017 268.2 10.1 272 13.8
2011-10-25 11:00:56 51°15.973 2°25.753 271.4 10 275 12.9
2011-10-25 11:01:56 51°15.992 2°25.486 270.4 10.1 276 15.6
2011-10-25 11:02:56 51°16.024 2°25.262 286.7 6 306 17.3
2011-10-25 11:03:56 51°16.087 2°25.215 320.1 3.3 -999 22
2011-10-25 11:04:56 51°16.124 2°25.242 322.5 2.4 38 22.2
2011-10-25 11:05:56 51°16.153 2°25.279 325.2 2.2 35 21.9
2011-10-25 11:06:56 51°16.184 2°25.318 324.9 2.4 37 22.3
2011-10-25 11:07:56 51°16.214 2°25.354 319.3 2.3 38 21.6
2011-10-25 11:08:56 51°16.244 2°25.392 312 2.3 40 21.4
2011-10-25 11:09:56 51°16.271 2°25.432 306.6 2.2 43 21
2011-10-25 11:10:56 51°16.299 2°25.472 301.2 2.3 41 20.3
2011-10-25 11:11:56 51°16.327 2°25.512 297.7 2.3 43 20
2011-10-25 11:12:56 51°16.356 2°25.553 295.4 2.3 42 19.6
2011-10-25 11:13:56 51°16.383 2°25.595 289.2 2.3 42 19.3
2011-10-25 11:14:56 51°16.41 2°25.637 286.1 2.3 45 18.8
2011-10-25 11:15:56 51°16.437 2°25.68 278.1 2.3 48 18.3
2011-10-25 11:16:56 51°16.463 2°25.726 275.7 2.3 49 17.9
2011-10-25 11:17:56 51°16.49 2°25.773 275.6 2.4 49 17.2
2011-10-25 11:18:56 51°16.516 2°25.821 275.5 2.4 49 16.7
2011-10-25 11:19:56 51°16.543 2°25.871 275.2 2.4 51 16.3
2011-10-25 11:20:56 51°16.568 2°25.917 269.8 2.5 46 17
2011-10-25 11:21:56 51°16.592 2°25.962 266.7 2.3 50 18.2
2011-10-25 11:22:56 51°16.616 2°26.005 263.7 2.3 46 16.6
2011-10-25 11:23:56 51°16.641 2°26.053 263.2 2.4 49 15.8
2011-10-25 11:24:56 51°16.666 2°26.097 260.3 1.8 36 17.1
2011-10-25 11:25:56 51°16.698 2°26.09 305.8 3.3 352 18.4
2011-10-25 11:26:56 51°16.773 2°26.136 28.4 5.9 43 19.1
2011-10-25 11:27:56 51°16.809 2°26.276 108.5 5.4 92 14.8
2011-10-25 11:28:56 51°16.778 2°26.364 188.1 2.8 160 13
2011-10-25 11:29:56 51°16.705 2°26.332 214.9 4.6 206 13.1
2011-10-25 11:30:56 51°16.662 2°26.288 226.9 2.3 221 12
2011-10-25 11:31:56 51°16.636 2°26.246 236.4 2.5 234 10.5
2011-10-25 11:32:56 51°16.612 2°26.187 236.8 2.7 233 10.7
2011-10-25 11:33:56 51°16.588 2°26.127 242 2.5 244 13.4
2011-10-25 11:34:56 51°16.57 2°26.06 239.4 2.7 242 14.2
2011-10-25 11:35:56 51°16.548 2°25.997 237.1 2.8 241 15.8
2011-10-25 11:36:56 51°16.528 2°25.932 237.4 2.5 240 15.9
2011-10-25 11:37:56 51°16.508 2°25.867 236.9 2.8 243 15.2
2011-10-25 11:38:56 51°16.489 2°25.803 238.2 2.6 249 15.8
2011-10-25 11:39:56 51°16.463 2°25.754 221.7 2.5 211 16.3
2011-10-25 11:40:56 51°16.422 2°25.725 211.7 2.8 203 15.1
2011-10-25 11:41:56 51°16.382 2°25.689 220.8 2.8 215 15.5
2011-10-25 11:42:56 51°16.35 2°25.647 224.1 2.5 223 16.2
2011-10-25 11:43:56 51°16.317 2°25.602 222.5 2.6 220 15.9
2011-10-25 11:44:56 51°16.281 2°25.561 218.6 2.8 214 15.4
2011-10-25 11:45:56 51°16.243 2°25.524 219.3 2.5 216 14.4
2011-10-25 11:46:56 51°16.206 2°25.484 219.9 2.8 219 14.4
2011-10-25 11:47:56 51°16.177 2°25.431 235.6 2.7 246 14.3
2011-10-25 11:48:56 51°16.174 2°25.355 257.1 3.3 280 19.2
2011-10-25 11:49:56 51°16.2 2°25.266 276.3 4 302 23.5
2011-10-25 11:50:56 51°16.244 2°25.182 287.5 4.4 316 26.5
2011-10-25 11:51:56 51°16.31 2°25.114 307.1 5 336 30.3
2011-10-25 11:52:56 51°16.389 2°25.078 324.1 5.1 351 32.7
2011-10-25 11:53:56 51°16.473 2°25.076 345.3 5.2 8 33.8
2011-10-25 11:54:56 51°16.555 2°25.122 15.3 5.2 28 35.1
2011-10-25 11:55:56 51°16.625 2°25.196 35.5 4.9 39 34.8
2011-10-25 11:56:56 51°16.683 2°25.286 50 4.8 48 34.8
2011-10-25 11:57:56 51°16.731 2°25.386 65.8 4.6 55 34.5
2011-10-25 11:58:56 51°16.769 2°25.491 76.5 4.6 60 33.7
2011-10-25 11:59:56 51°16.806 2°25.598 74.5 4.6 59 33.1
2011-10-25 12:00:56 51°16.846 2°25.705 72.2 4.7 60 33.2
2011-10-25 12:01:56 51°16.887 2°25.813 73.5 4.7 60 32.5
2011-10-25 12:02:56 51°16.924 2°25.922 83 4.6 65 31.7
2011-10-25 12:03:56 51°16.951 2°26.031 98.8 4.3 73 30.2
2011-10-25 12:04:56 51°16.969 2°26.137 110 4.1 76 27.7
2011-10-25 12:05:56 51°16.982 2°26.247 111.9 4.6 83 24.7
2011-10-25 12:06:56 51°16.993 2°26.381 100.2 5.5 79 20.7
2011-10-25 12:07:56 51°17.003 2°26.513 110 4.6 82 16.5
2011-10-25 12:08:56 51°17.011 2°26.625 109 4.1 83 13
2011-10-25 12:09:56 51°17.017 2°26.729 111.4 4 84 10.8
2011-10-25 12:10:56 51°17.019 2°26.84 111.2 4.2 91 10.8
2011-10-25 12:11:56 51°17.009 2°26.963 117.2 4.4 95 10.9
2011-10-25 12:12:56 51°17.004 2°27.059 120.6 3.2 89 11.1
2011-10-25 12:13:56 51°17.007 2°27.132 118.9 2.6 82 11.4
2011-10-25 12:14:56 51°17.015 2°27.192 119.7 2.3 74 10.6
2011-10-25 12:15:56 51°17.025 2°27.245 120.6 2.3 77 10.9
2011-10-25 12:16:56 51°17.022 2°27.326 118.8 3.6 99 11.1
2011-10-25 12:17:56 51°17.007 2°27.448 114 6.9 103 11.3
2011-10-25 12:18:56 51°17.014 2°27.682 81.9 9.9 79 13.5
2011-10-25 12:19:56 51°17.051 2°27.948 79.9 11.1 76 15.2
2011-10-25 12:20:56 51°17.093 2°28.28 81.4 13.1 81 22.5
2011-10-25 12:21:56 51°17.146 2°28.621 78.9 13.3 76 28.1
2011-10-25 12:22:56 51°17.195 2°28.964 80 13.2 77 30.1
2011-10-25 12:23:56 51°17.241 2°29.308 83 13.2 79 31
2011-10-25 12:24:56 51°17.287 2°29.654 81.5 13.2 77 30.9
2011-10-25 12:25:56 51°17.337 2°30 79.5 13.1 77 30.8
2011-10-25 12:26:56 51°17.392 2°30.347 78.5 13.6 72 30.3
2011-10-25 12:27:56 51°17.441 2°30.694 83.1 13.3 82 30.2
2011-10-25 12:28:56 51°17.487 2°31.041 79.9 13.4 78 30
2011-10-25 12:29:56 51°17.54 2°31.386 85.4 13.5 81 29.1
2011-10-25 12:30:56 51°17.571 2°31.734 88.3 13.1 83 28.3
2011-10-25 12:31:56 51°17.603 2°32.079 84.5 13.1 78 25.3
2011-10-25 12:32:56 51°17.642 2°32.426 85.6 13.6 82 26.9
2011-10-25 12:33:56 51°17.674 2°32.776 84.4 13.6 80 26.3
2011-10-25 12:34:56 51°17.712 2°33.129 83.5 13.6 78 27.8
2011-10-25 12:35:56 51°17.741 2°33.484 90.5 13.5 84 29.9
2011-10-25 12:36:56 51°17.754 2°33.84 95.5 13.3 89 28.2
2011-10-25 12:37:56 51°17.761 2°34.196 93.3 13.4 84 29.1
2011-10-25 12:38:56 51°17.772 2°34.555 94.1 13.6 88 25.7
2011-10-25 12:39:56 51°17.784 2°34.916 93.5 13.7 85 19.8
2011-10-25 12:40:56 51°17.768 2°35.27 111.5 12.8 111 16.7
2011-10-25 12:41:56 51°17.627 2°35.485 157.5 11.5 156 15
2011-10-25 12:42:56 51°17.444 2°35.556 174 11.5 171 13.7
2011-10-25 12:43:56 51°17.257 2°35.602 176.5 11.2 175 14.2
2011-10-25 12:44:56 51°17.067 2°35.635 176.9 11.5 175 18.1
2011-10-25 12:45:56 51°16.877 2°35.642 181.7 11.4 179 23
2011-10-25 12:46:56 51°16.688 2°35.669 177.5 11.4 175 26.9
2011-10-25 12:47:56 51°16.499 2°35.689 179.3 11.5 174 28
2011-10-25 12:48:56 51°16.311 2°35.711 181.3 11.2 180 28
2011-10-25 12:49:56 51°16.123 2°35.733 176.9 11.3 173 28.1
2011-10-25 12:50:56 51°15.937 2°35.769 178.9 11.2 174 28.2
2011-10-25 12:51:56 51°15.752 2°35.787 181.6 11 177 28.3
2011-10-25 12:52:56 51°15.567 2°35.801 180.1 11.1 177 27.3
2011-10-25 12:53:56 51°15.382 2°35.815 177.3 11.1 173 24.7
2011-10-25 12:54:56 51°15.198 2°35.848 177.1 11.1 173 20.5
2011-10-25 12:55:56 51°15.015 2°35.862 182 11.1 179 19.1
2011-10-25 12:56:56 51°14.831 2°35.876 178.6 10.9 176 18.9
2011-10-25 12:57:56 51°14.648 2°35.885 181.6 11.1 179 18.4
2011-10-25 12:58:56 51°14.462 2°35.907 175.7 11.2 172 15.7
2011-10-25 12:59:56 51°14.274 2°35.911 182.6 11.4 182 13.4
2011-10-25 13:00:56 51°14.095 2°35.98 151.1 11.5 146 14.3
2011-10-25 13:01:56 51°13.965 2°36.217 131.5 12.3 128 16.6
2011-10-25 13:02:56 51°13.843 2°36.477 129.4 12.4 126 20.2
2011-10-25 13:03:56 51°13.728 2°36.749 128.7 12.4 127 21.3
2011-10-25 13:04:56 51°13.6 2°37.005 130.7 12.4 127 17.4
2011-10-25 13:05:56 51°13.48 2°37.261 126.4 11.7 125 9.9
2011-10-25 13:06:56 51°13.354 2°37.501 140.6 11.6 143 11
2011-10-25 13:07:56 51°13.173 2°37.573 179.1 11.4 177 12.5
2011-10-25 13:08:56 51°12.984 2°37.537 184.7 11.5 188 12.8
2011-10-25 13:09:56 51°12.796 2°37.491 189.2 11.3 193 13.2
2011-10-25 13:10:56 51°12.611 2°37.424 190.2 11.4 192 12.8
2011-10-25 13:11:56 51°12.424 2°37.374 186.1 11.2 188 12.4
2011-10-25 13:12:56 51°12.238 2°37.31 191 11.2 191 12.4
2011-10-25 13:13:56 51°12.052 2°37.239 192.2 11.5 196 12.8
2011-10-25 13:14:56 51°11.868 2°37.168 188.7 11.4 192 13.4
2011-10-25 13:15:56 51°11.681 2°37.11 187.3 11.3 189 14.1
2011-10-25 13:16:56 51°11.496 2°37.042 193.5 11.3 196 14.2
2011-10-25 13:17:56 51°11.315 2°36.943 195.4 11.3 197 14.4
2011-10-25 13:18:56 51°11.13 2°36.866 193.6 11.6 199 14.1
2011-10-25 13:19:56 51°10.947 2°36.791 191.4 11.2 194 13
2011-10-25 13:20:56 51°10.766 2°36.7 193.3 11.4 194 11.6
2011-10-25 13:21:56 51°10.587 2°36.617 196.2 11.2 201 10.9
2011-10-25 13:22:56 51°10.407 2°36.609 163.7 11.4 161 11.6
2011-10-25 13:23:56 51°10.278 2°36.842 121 12.6 117 18.3
2011-10-25 13:24:56 51°10.218 2°37.163 97.7 12.8 94 18.8
2011-10-25 13:25:56 51°10.26 2°37.495 70.4 13 71 19.1
2011-10-25 13:26:56 51°10.32 2°37.824 76.1 12.9 78 18.9
2011-10-25 13:27:56 51°10.368 2°38.156 75.6 12.9 78 18.4
2011-10-25 13:28:56 51°10.402 2°38.495 82.7 13 84 17.5
2011-10-25 13:29:56 51°10.438 2°38.834 79.1 13 81 17.4
2011-10-25 13:30:56 51°10.469 2°39.176 80.9 13.1 79 16.5
2011-10-25 13:31:56 51°10.509 2°39.515 80.9 12.9 81 15.9
2011-10-25 13:32:56 51°10.543 2°39.852 77.8 12.9 78 15.4
2011-10-25 13:33:56 51°10.597 2°40.184 74.7 12.9 76 14.7
2011-10-25 13:34:56 51°10.645 2°40.519 77.5 12.8 79 14.1
2011-10-25 13:35:56 51°10.699 2°40.847 74.9 12.8 75 13.7
2011-10-25 13:36:56 51°10.746 2°41.176 78.6 12.8 79 13.5
2011-10-25 13:37:56 51°10.802 2°41.501 72.4 12.7 72 13.5
2011-10-25 13:38:56 51°10.865 2°41.824 74.7 12.8 75 13.6
2011-10-25 13:39:56 51°10.922 2°42.149 72.7 12.7 72 13.5
2011-10-25 13:40:56 51°10.978 2°42.475 75.3 12.7 75 13.6
2011-10-25 13:41:56 51°11.039 2°42.799 72.3 12.8 71 13.7
2011-10-25 13:42:56 51°11.101 2°43.122 76.4 12.7 75 13.6
2011-10-25 13:43:56 51°11.159 2°43.445 72.9 12.7 69 13.6
2011-10-25 13:44:56 51°11.235 2°43.758 70.1 12.6 70 13.5
2011-10-25 13:45:56 51°11.298 2°44.076 72.3 12.6 70 13.6
2011-10-25 13:46:56 51°11.373 2°44.385 69.4 12.5 70 13.6
2011-10-25 13:47:56 51°11.436 2°44.7 78.5 12.5 79 13.5
2011-10-25 13:48:56 51°11.444 2°45.029 90.3 12.5 88 13.5
2011-10-25 13:49:56 51°11.459 2°45.357 86.6 12.5 84 13
2011-10-25 13:50:56 51°11.486 2°45.683 78.6 12.3 76 12.7
2011-10-25 13:51:56 51°11.539 2°46.002 77.5 12.4 76 12.5
2011-10-25 13:52:56 51°11.581 2°46.323 81.2 12.4 78 12.2
2011-10-25 13:53:56 51°11.627 2°46.643 78.1 12.4 75 11.5
2011-10-25 13:54:56 51°11.679 2°46.959 79 12.3 77 10.9
2011-10-25 13:55:56 51°11.732 2°47.273 77.6 12.3 78 10.5
2011-10-25 13:56:56 51°11.764 2°47.593 86.7 12.4 84 9.9
2011-10-25 13:57:56 51°11.792 2°47.836 75.8 6.3 73 10.1
2011-10-25 13:58:56 51°11.816 2°47.952 77.7 3.6 72 9.7
2011-10-25 13:59:56 51°11.846 2°48.018 36.6 3.1 32 10.1
2011-10-25 14:00:56 51°11.94 2°48.085 31 8.2 30 10.4
2011-10-25 14:01:56 51°12.034 2°48.209 52.1 5.7 51 10.8
2011-10-25 14:02:56 51°12.078 2°48.308 59.8 4 56 11
2011-10-25 14:03:56 51°12.116 2°48.386 56.4 3.6 52 11
2011-10-25 14:04:56 51°12.149 2°48.462 61.6 3.4 58 11.2
2011-10-25 14:05:56 51°12.18 2°48.537 61.6 3.5 57 11.3
2011-10-25 14:06:56 51°12.213 2°48.616 60.6 3.7 57 11.3
2011-10-25 14:07:56 51°12.252 2°48.69 50.2 3.7 46 11.1
2011-10-25 14:08:56 51°12.297 2°48.758 45.6 3.7 41 11.2
2011-10-25 14:09:56 51°12.342 2°48.824 46.7 3.7 43 11.5
2011-10-25 14:10:56 51°12.388 2°48.891 47.8 3.7 43 11.6
2011-10-25 14:11:56 51°12.432 2°48.96 49.6 3.7 46 11.8
2011-10-25 14:12:56 51°12.475 2°49.031 50.5 3.7 48 12.1
2011-10-25 14:13:56 51°12.518 2°49.102 49.9 3.7 46 12.1
2011-10-25 14:14:56 51°12.562 2°49.172 48.6 3.7 44 12.1
2011-10-25 14:15:56 51°12.606 2°49.241 48.7 3.7 45 12.3
2011-10-25 14:16:56 51°12.65 2°49.31 48.6 3.7 46 12.3
2011-10-25 14:17:56 51°12.692 2°49.383 58.5 3.7 57 12.4
2011-10-25 14:18:56 51°12.719 2°49.466 70.3 3.5 67 12.2
2011-10-25 14:19:56 51°12.743 2°49.549 70.6 3.4 66 12.1
2011-10-25 14:20:56 51°12.76 2°49.634 80.8 3.3 74 11.9
2011-10-25 14:21:56 51°12.767 2°49.721 92.5 3.3 88 11.8
2011-10-25 14:22:56 51°12.762 2°49.809 102.5 3 99 11.7
2011-10-25 14:23:56 51°12.761 2°49.885 89.3 3.9 84 11.4
2011-10-25 14:24:56 51°12.816 2°50.054 55.2 8.9 51 11.4
2011-10-25 14:25:56 51°12.901 2°50.177 31.1 4.8 27 11.7
2011-10-25 14:26:56 51°12.959 2°50.204 10.2 3 8 11.6
2011-10-25 14:27:56 51°13.009 2°50.225 27.8 4.7 32 11.7
2011-10-25 14:28:56 51°13.098 2°50.373 48 9.3 47 11.6
2011-10-25 14:29:56 51°13.212 2°50.573 51.3 10.5 49 11.4
2011-10-25 14:30:56 51°13.324 2°50.789 50.5 10.6 48 11.2
2011-10-25 14:31:56 51°13.429 2°51.01 66 10.4 68 11.3
2011-10-25 14:32:56 51°13.462 2°51.28 84.3 10.4 85 11
2011-10-25 14:33:56 51°13.42 2°51.425 149.1 4.4 154 11.2
2011-10-25 14:34:56 51°13.383 2°51.43 196 1 194 11
2011-10-25 14:35:56 51°13.38 2°51.424 221.2 0.1 271 11
2011-10-25 14:36:56 51°13.382 2°51.419 236.9 0.2 309 11
2011-10-25 14:37:56 51°13.384 2°51.413 250 0.3 292 10.9
2011-10-25 14:38:56 51°13.385 2°51.408 259.6 0.2 277 11.1
2011-10-25 14:39:56 51°13.386 2°51.401 265.7 0.3 291 11
2011-10-25 14:40:56 51°13.388 2°51.394 269.1 0.4 308 11.1
2011-10-25 14:41:56 51°13.391 2°51.387 269.7 0.3 300 11.2
2011-10-25 14:42:56 51°13.393 2°51.378 269.4 0.4 284 11.1
2011-10-25 14:43:56 51°13.394 2°51.369 267.8 0.4 293 11.1
2011-10-25 14:44:56 51°13.396 2°51.36 264.8 0.4 299 11.1
2011-10-25 14:45:56 51°13.398 2°51.35 261.4 0.4 295 10.9
2011-10-25 14:46:56 51°13.4 2°51.341 256.3 0.5 299 11.1
2011-10-25 14:47:56 51°13.402 2°51.331 249.6 0.4 300 11
2011-10-25 14:48:56 51°13.404 2°51.321 243.6 0.4 283 10.9
2011-10-25 14:49:56 51°13.404 2°51.307 233 1.2 234 10.9
2011-10-25 14:50:56 51°13.373 2°51.286 174.4 2.5 179 10.9
2011-10-25 14:51:56 51°13.341 2°51.327 109.6 2.8 113 10.8
2011-10-25 14:52:56 51°13.329 2°51.478 92.8 7.9 91 10.6
2011-10-25 14:53:56 51°13.384 2°51.708 58.5 10 58 10.3
2011-10-25 14:54:56 51°13.498 2°51.923 46.8 11.1 46 10.4
2011-10-25 14:55:56 51°13.626 2°52.154 50.5 11.8 48 10.1
2011-10-25 14:56:56 51°13.736 2°52.415 59.6 11.9 59 10
2011-10-25 14:57:56 51°13.846 2°52.678 56.9 11.9 55 9.8
2011-10-25 14:58:56 51°13.967 2°52.927 50.6 11.9 49 9.7
2011-10-25 14:59:56 51°14.099 2°53.161 46.4 11.8 45 9.6
2011-10-25 15:00:56 51°14.233 2°53.392 48.5 11.9 48 9.8
2011-10-25 15:01:56 51°14.364 2°53.626 49.5 11.8 49 9.4
2011-10-25 15:02:56 51°14.48 2°53.876 56.7 11.6 53 9.5
2011-10-25 15:03:56 51°14.594 2°54.125 54.2 11.6 51 9.8
2011-10-25 15:04:56 51°14.664 2°54.366 87 9.6 93 9.8
2011-10-25 15:05:56 51°14.63 2°54.617 102.5 9.6 105 9.9
2011-10-25 15:06:56 51°14.581 2°54.865 106.1 9.7 111 11.4
2011-10-25 15:07:56 51°14.483 2°55.068 135.8 10 140 11.2
2011-10-25 15:08:56 51°14.346 2°55.226 143.1 10.4 144 10.7
2011-10-25 15:09:56 51°14.204 2°55.361 148.8 8.9 152 10.7
2011-10-25 15:10:59 51°14.075 2°55.458 154 7.9 157 -999
2011-10-25 15:11:57 51°13.968 2°55.531 154.7 6.6 157 11
2011-10-25 15:12:55 51°13.875 2°55.596 155.4 6.2 157 11
2011-10-25 15:13:56 51°13.784 2°55.67 146 5.7 145 11.1
2011-10-25 15:14:56 51°13.727 2°55.763 129 4.5 130 11.6
2011-10-25 15:15:56 51°13.683 2°55.854 125.3 4.1 126 10.2
2011-10-25 15:16:56 51°13.65 2°55.941 114.1 3.4 115 10.6
2011-10-25 15:17:56 51°13.638 2°56.008 104.6 1.5 104 7.1
2011-10-25 15:18:56 51°13.636 2°56.017 127.5 0.1 337 6.7
2011-10-25 15:19:56 51°13.636 2°56.018 126.3 0.1 57 6.7
2011-10-25 15:20:56 51°13.636 2°56.019 126.1 -999 129 6.9